Time;durP1;ratioP1;P1;durP2;ratioP2;P2;SDS_P1;SDS_P2;PMS_P1;PMS_P2;Temp;Humidity;BMP_temperature;BMP_pressure;BME280_temperature;BME280_humidity;BME280_pressure;Samples;Min_cycle;Max_cycle;Signal;HPM_P1;HPM_P2
2023/08/04 00:00:31;;;;;;;3.93;1.50;;;16.30;87.10;;;16.26;73.84;97360.19;4943031;28;20546;-79
2023/08/04 00:02:58;;;;;;;1.47;1.37;;;16.30;86.30;;;16.26;74.03;97360.19;4944851;29;20894;-78
2023/08/04 00:05:27;;;;;;;2.37;1.40;;;16.20;86.40;;;16.14;74.04;97366.69;4968954;28;20449;-78
2023/08/04 00:07:56;;;;;;;2.87;1.73;;;16.10;86.30;;;16.10;74.19;97356.63;4956134;28;20982;-78
2023/08/04 00:10:25;;;;;;;2.83;1.20;;;16.00;86.60;;;15.94;75.79;97329.31;4954331;29;20518;-78
2023/08/04 00:12:52;;;;;;;2.87;1.47;;;16.00;87.80;;;16.00;75.01;97360.13;4953500;28;20972;-77
2023/08/04 00:15:19;;;;;;;1.20;1.07;;;15.90;87.20;;;16.04;74.83;97363.13;4951179;29;20472;-79
2023/08/04 00:17:46;;;;;;;1.10;1.00;;;15.90;87.30;;;15.84;75.23;97360.00;4951521;29;20964;-77
2023/08/04 00:20:13;;;;;;;1.03;0.93;;;15.90;87.30;;;15.70;75.95;97358.88;4954270;29;20446;-77
2023/08/04 00:22:41;;;;;;;1.97;1.20;;;15.90;87.20;;;15.57;76.43;97357.44;4946251;29;20479;-78
2023/08/04 00:25:10;;;;;;;2.57;1.50;;;15.80;87.40;;;15.64;76.23;97349.03;4946421;29;20948;-79
2023/08/04 00:27:36;;;;;;;3.33;1.00;;;15.80;87.60;;;15.60;76.73;97350.66;4946583;29;20457;-80
2023/08/04 00:30:04;;;;;;;2.27;1.20;;;15.70;87.90;;;15.64;77.10;97355.31;4941965;29;20973;-77
2023/08/04 00:32:31;;;;;;;3.10;1.23;;;15.80;88.10;;;15.72;76.82;97357.50;4952283;29;20492;-78
2023/08/04 00:34:59;;;;;;;0.70;0.67;;;15.80;88.20;;;15.63;77.03;97348.22;4953954;29;20455;-77
2023/08/04 00:37:27;;;;;;;1.77;0.73;;;15.80;88.00;;;15.62;76.60;97362.09;4946256;28;20464;-76
2023/08/04 00:39:56;;;;;;;2.10;1.00;;;15.80;87.90;;;15.64;76.30;97360.75;4964419;28;20483;-77
2023/08/04 00:42:23;;;;;;;1.27;1.10;;;15.80;87.60;;;15.49;76.88;97345.16;4961580;28;21027;-76
2023/08/04 00:44:51;;;;;;;3.33;1.20;;;15.70;87.80;;;15.15;76.42;97299.25;4943753;29;20457;-78
2023/08/04 00:47:19;;;;;;;2.30;1.00;;;15.70;88.10;;;15.64;76.17;97368.09;4949825;29;20491;-85
2023/08/04 00:49:47;;;;;;;1.20;1.00;;;15.70;87.90;;;15.55;76.61;97352.28;4962800;28;20470;-76
2023/08/04 00:52:15;;;;;;;1.03;0.77;;;15.70;88.30;;;15.56;76.87;97361.25;4963686;28;20464;-76
2023/08/04 00:54:44;;;;;;;0.87;0.83;;;15.70;88.30;;;15.47;77.10;97351.94;4958145;28;20494;-76
2023/08/04 00:57:13;;;;;;;1.50;1.13;;;15.60;88.50;;;15.51;77.47;97359.31;4947952;29;20459;-77
2023/08/04 00:59:41;;;;;;;1.93;0.90;;;15.60;88.90;;;15.51;77.67;97362.03;4944048;29;20855;-78
2023/08/04 01:02:08;;;;;;;1.00;0.90;;;15.60;88.90;;;15.58;76.86;97362.63;4951221;28;20468;-77
2023/08/04 01:04:35;;;;;;;0.80;0.80;;;15.60;89.10;;;15.47;77.71;97354.66;4950569;29;20462;-78
2023/08/04 01:07:16;;;;;;;2.73;1.00;;;15.60;89.00;;;15.51;77.18;97367.47;4950896;28;20468;-79
2023/08/04 01:09:52;;;;;;;1.73;1.10;;;15.60;88.80;;;15.55;77.59;97367.78;4952736;29;20482;-76
2023/08/04 01:12:30;;;;;;;1.47;0.83;;;15.60;89.10;;;15.57;77.02;97361.00;4963841;28;20818;-80
2023/08/04 01:14:59;;;;;;;3.20;1.30;;;15.50;89.20;;;15.52;77.54;97360.16;4944695;29;20466;-74
2023/08/04 01:17:29;;;;;;;1.67;1.10;;;15.40;89.80;;;15.50;77.77;97365.03;4944358;29;20449;-78
2023/08/04 01:20:06;;;;;;;1.50;1.40;;;15.30;90.00;;;15.42;78.21;97366.34;4948137;28;20471;-75
2023/08/04 01:22:35;;;;;;;1.63;1.07;;;15.30;90.30;;;15.44;78.57;97367.72;4950939;29;20475;-79
2023/08/04 01:25:03;;;;;;;2.10;1.13;;;15.30;90.70;;;15.17;78.95;97356.94;4949912;28;20447;-80
2023/08/04 01:27:36;;;;;;;1.30;0.97;;;15.30;90.40;;;15.09;79.40;97371.84;4950330;28;20464;-79
2023/08/04 01:30:07;;;;;;;2.07;0.90;;;15.30;90.50;;;15.04;79.52;97369.09;4951504;29;20459;-79
2023/08/04 01:32:34;;;;;;;1.30;0.70;;;15.20;90.60;;;15.07;80.05;97373.16;4944546;29;20458;-81
2023/08/04 01:35:01;;;;;;;1.30;1.20;;;15.20;91.00;;;15.11;80.54;97364.22;4948861;29;20466;-79
2023/08/04 01:37:28;;;;;;;1.80;1.20;;;15.20;91.30;;;15.19;79.96;97373.00;4955039;28;20452;-79
2023/08/04 01:39:57;;;;;;;1.40;1.30;;;15.30;90.70;;;15.25;78.77;97367.34;4948195;28;20466;-78
2023/08/04 01:42:24;;;;;;;1.97;1.27;;;15.40;90.40;;;15.24;79.01;97364.88;4948831;28;20546;-79
2023/08/04 01:44:52;;;;;;;2.73;1.30;;;15.40;90.70;;;15.12;79.37;97348.75;4956445;28;20473;-81
2023/08/04 01:47:19;;;;;;;2.60;1.40;;;15.40;90.50;;;15.19;79.59;97379.25;4950429;28;20455;-87
2023/08/04 01:49:46;;;;;;;1.93;1.30;;;15.40;90.30;;;15.07;79.80;97360.41;4962423;29;20452;-76
2023/08/04 01:52:14;;;;;;;3.10;1.57;;;15.30;90.50;;;15.09;79.62;97379.16;4977483;28;20487;-83
2023/08/04 01:54:41;;;;;;;2.10;1.60;;;15.30;90.40;;;15.06;80.16;97377.81;4960278;29;20452;-84
2023/08/04 01:57:09;;;;;;;2.07;1.37;;;15.30;90.70;;;15.11;79.79;97369.66;4958027;29;20455;-79
2023/08/04 01:59:37;;;;;;;1.63;1.10;;;15.20;90.80;;;15.13;80.07;97377.59;4956710;28;20481;-79
2023/08/04 02:02:05;;;;;;;4.00;1.60;;;15.10;91.40;;;15.21;80.46;97382.53;4965785;28;20462;-86
2023/08/04 02:04:32;;;;;;;2.30;1.30;;;15.20;91.70;;;15.65;78.96;97383.34;4963327;28;20489;-78
2023/08/04 02:06:59;;;;;;;1.30;1.13;;;15.50;91.30;;;15.31;79.47;97346.41;4950241;28;20465;-79
2023/08/04 02:09:27;;;;;;;3.23;1.30;;;15.50;91.30;;;15.44;78.54;97372.34;4949725;29;20487;-77
2023/08/04 02:11:55;;;;;;;2.30;1.00;;;15.50;90.70;;;15.41;78.76;97375.59;4942694;28;20990;-76
2023/08/04 02:14:24;;;;;;;1.27;1.17;;;15.40;90.60;;;15.38;78.47;97387.00;4956727;28;20476;-76
2023/08/04 02:16:51;;;;;;;1.00;1.00;;;15.40;90.60;;;14.67;79.22;97288.25;4949138;29;20471;-77
2023/08/04 02:19:20;;;;;;;1.90;1.30;;;15.30;90.90;;;15.32;79.24;97375.28;4946657;29;21015;-76
2023/08/04 02:21:48;;;;;;;2.97;1.50;;;15.30;91.10;;;15.27;79.63;97378.78;4949896;29;20456;-82
2023/08/04 02:24:15;;;;;;;2.63;1.40;;;15.20;91.10;;;15.30;80.36;97382.84;4943628;29;20488;-78
2023/08/04 02:26:44;;;;;;;2.17;1.93;;;15.20;91.80;;;15.22;80.63;97373.28;4941543;28;20469;-80
2023/08/04 02:29:11;;;;;;;3.20;1.60;;;15.10;92.10;;;15.21;80.13;97382.53;4942545;29;20808;-82
2023/08/04 02:31:42;;;;;;;1.27;1.10;;;15.00;92.10;;;14.97;81.74;97399.22;4944108;29;20503;-86
2023/08/04 02:34:09;;;;;;;2.83;1.40;;;15.00;92.20;;;14.82;81.46;97391.75;4955149;28;20459;-82
2023/08/04 02:36:37;;;;;;;2.70;1.60;;;15.00;91.90;;;14.83;81.36;97387.94;4949301;28;20466;-83
2023/08/04 02:39:07;;;;;;;2.83;2.10;;;15.00;91.80;;;14.54;81.69;97352.03;4947760;28;20467;-83
2023/08/04 02:41:34;;;;;;;1.60;1.50;;;15.00;91.80;;;14.76;81.76;97390.06;4947434;29;21220;-78
2023/08/04 02:44:03;;;;;;;2.73;1.70;;;14.90;91.70;;;14.73;82.04;97382.44;4943118;28;20484;-77
2023/08/04 02:46:31;;;;;;;3.03;2.00;;;14.90;92.00;;;14.62;82.86;97373.31;4950023;28;20546;-79
2023/08/04 02:48:59;;;;;;;1.70;1.27;;;14.80;92.30;;;14.59;83.42;97379.25;4942890;28;20442;-77
2023/08/04 02:51:26;;;;;;;2.40;1.60;;;14.80;92.50;;;14.53;84.08;97369.44;4956423;28;20502;-82
2023/08/04 02:53:54;;;;;;;2.97;1.60;;;14.70;93.10;;;13.92;83.94;97297.91;4948841;29;20820;-83
2023/08/04 02:56:21;;;;;;;2.73;1.97;;;14.60;92.80;;;14.26;84.83;97348.50;4949043;28;20458;-81
2023/08/04 02:58:49;;;;;;;1.37;1.20;;;14.60;93.40;;;14.28;85.16;97368.09;4948039;29;20473;-81
2023/08/04 03:01:16;;;;;;;1.90;1.33;;;14.50;93.80;;;14.24;84.95;97375.13;4941781;29;20469;-79
2023/08/04 03:03:43;;;;;;;1.80;1.33;;;14.40;94.10;;;13.96;86.91;97366.09;4948280;29;20554;-81
2023/08/04 03:06:13;;;;;;;2.43;1.30;;;14.30;94.30;;;13.83;87.20;97362.69;4945051;29;20475;-80
2023/08/04 03:08:41;;;;;;;2.10;1.13;;;14.20;94.80;;;13.80;87.91;97365.91;4947343;29;20463;-81
2023/08/04 03:11:10;;;;;;;1.93;1.43;;;14.10;95.30;;;13.87;87.42;97368.44;4943142;28;21035;-78
2023/08/04 03:13:38;;;;;;;3.40;1.63;;;14.00;95.60;;;13.83;87.55;97370.03;4946410;29;20463;-80
2023/08/04 03:16:07;;;;;;;3.63;1.43;;;14.00;95.90;;;13.85;88.03;97379.53;4949148;28;20465;-79
2023/08/04 03:18:34;;;;;;;1.20;1.20;;;13.90;96.30;;;13.89;88.24;97363.56;4936947;29;20807;-81
2023/08/04 03:21:03;;;;;;;2.10;1.70;;;14.00;97.30;;;13.87;88.55;97385.53;4947703;29;20539;-81
2023/08/04 03:23:32;;;;;;;2.50;1.60;;;14.00;97.00;;;13.80;88.93;97367.78;4946797;28;20598;-80
2023/08/04 03:25:59;;;;;;;3.47;1.20;;;14.00;97.50;;;13.80;88.75;97363.19;4944057;29;20462;-78
2023/08/04 03:28:26;;;;;;;2.37;1.37;;;14.10;96.90;;;14.02;88.69;97392.22;4960773;28;20466;-83
2023/08/04 03:30:54;;;;;;;2.27;1.40;;;14.00;97.10;;;14.04;87.49;97379.25;4941289;29;20465;-81
2023/08/04 03:33:21;;;;;;;1.20;1.10;;;14.00;97.20;;;14.09;87.38;97379.28;4949314;29;20479;-81
2023/08/04 03:35:51;;;;;;;0.90;0.90;;;14.00;96.90;;;14.16;87.49;97388.06;4959917;28;20517;-80
2023/08/04 03:38:18;;;;;;;3.10;1.47;;;14.10;97.40;;;14.24;87.31;97410.44;4947860;29;20547;-84
2023/08/04 03:40:47;;;;;;;2.30;1.27;;;14.10;97.10;;;14.38;86.82;97400.81;4944926;29;20462;-81
2023/08/04 03:43:14;;;;;;;1.60;1.40;;;14.30;96.70;;;14.05;86.57;97348.28;4947428;28;20466;-83
2023/08/04 03:45:41;;;;;;;2.93;1.70;;;14.30;96.80;;;14.47;86.05;97375.88;4947586;28;20475;-87
2023/08/04 03:48:08;;;;;;;1.50;1.37;;;14.40;96.40;;;14.58;85.79;97396.66;4933648;29;20468;-80
2023/08/04 03:50:36;;;;;;;2.07;1.90;;;14.50;95.60;;;14.57;85.61;97408.59;4946650;29;20546;-81
2023/08/04 03:53:03;;;;;;;2.90;1.50;;;14.60;94.90;;;14.66;85.47;97401.63;4944447;28;20946;-81
2023/08/04 03:55:30;;;;;;;1.60;1.30;;;14.70;94.60;;;14.63;85.50;97401.31;4954885;28;20458;-77
2023/08/04 03:57:59;;;;;;;1.67;1.30;;;14.70;94.40;;;14.57;85.17;97390.41;4942577;29;20470;-78
2023/08/04 04:00:26;;;;;;;1.23;1.13;;;14.80;94.10;;;14.67;85.79;97394.28;4936253;29;20468;-87
2023/08/04 04:02:53;;;;;;;3.23;1.60;;;14.80;94.50;;;14.54;85.56;97392.81;4943950;29;21004;-78
2023/08/04 04:05:21;;;;;;;2.87;1.10;;;14.80;94.00;;;14.49;86.17;97398.22;4950554;29;20461;-88
2023/08/04 04:07:48;;;;;;;1.90;1.50;;;14.70;94.20;;;14.47;86.74;97400.34;4951124;29;20955;-76
2023/08/04 04:10:15;;;;;;;5.20;1.37;;;14.60;95.00;;;14.37;86.25;97391.00;4952047;29;20468;-79
2023/08/04 04:12:42;;;;;;;1.43;1.20;;;14.60;94.70;;;14.37;86.23;97393.72;4945596;28;20494;-84
2023/08/04 04:15:12;;;;;;;3.43;1.60;;;14.60;94.60;;;14.45;85.72;97406.03;4965997;28;20955;-78
2023/08/04 04:17:39;;;;;;;1.40;1.10;;;14.60;94.80;;;14.42;85.31;97390.25;4947348;29;20509;-79
2023/08/04 04:20:08;;;;;;;2.70;1.60;;;14.70;94.50;;;14.26;85.70;97362.09;4957500;28;20987;-81
2023/08/04 04:22:35;;;;;;;3.90;1.63;;;14.70;94.60;;;14.50;86.20;97418.88;4946827;28;20452;-78
2023/08/04 04:25:03;;;;;;;1.83;1.40;;;14.80;94.10;;;14.53;86.58;97424.59;4939962;29;20480;-79
2023/08/04 04:27:30;;;;;;;1.80;1.60;;;14.70;94.60;;;14.13;85.07;97345.09;4958133;29;20458;-77
2023/08/04 04:29:57;;;;;;;1.40;1.30;;;14.80;94.00;;;14.68;85.32;97421.22;4951967;29;20450;-79
2023/08/04 04:32:26;;;;;;;2.23;1.83;;;14.90;94.00;;;14.80;84.21;97433.88;4953477;29;20463;-81
2023/08/04 04:34:53;;;;;;;1.80;1.30;;;15.00;93.40;;;14.89;83.26;97437.75;4962587;28;20471;-79
2023/08/04 04:37:20;;;;;;;3.17;1.73;;;15.10;92.80;;;14.71;83.83;97419.91;4953411;29;20870;-77
2023/08/04 04:39:48;;;;;;;2.90;2.30;;;15.10;92.70;;;14.71;85.27;97444.38;4950491;29;20538;-81
2023/08/04 04:42:16;;;;;;;3.50;1.63;;;15.10;93.10;;;14.77;85.32;97450.69;4960091;29;20461;-80
2023/08/04 04:44:44;;;;;;;2.43;1.70;;;15.00;93.60;;;14.97;84.53;97450.91;4984505;28;20478;-82
2023/08/04 04:47:11;;;;;;;3.17;1.60;;;15.10;93.60;;;15.05;84.16;97429.75;4966495;29;20464;-81
2023/08/04 04:49:40;;;;;;;2.43;2.20;;;15.10;93.90;;;14.96;82.62;97422.06;4949350;28;20885;-80
2023/08/04 04:52:15;;;;;;;3.07;1.43;;;15.20;93.40;;;15.07;82.51;97428.41;4956853;28;20459;-81
2023/08/04 04:54:42;;;;;;;3.23;1.90;;;15.20;92.70;;;15.02;82.18;97431.91;4949964;29;20453;-81
2023/08/04 04:57:10;;;;;;;2.27;1.93;;;15.20;92.50;;;15.01;82.41;97443.88;4955849;29;20451;-80
2023/08/04 04:59:37;;;;;;;3.20;1.60;;;15.10;92.40;;;15.01;82.17;97438.41;4952489;29;20499;-76
2023/08/04 05:02:05;;;;;;;1.90;1.67;;;15.10;92.70;;;14.82;82.94;97448.03;4949401;29;20661;-80
2023/08/04 05:04:32;;;;;;;2.90;1.77;;;15.10;92.30;;;14.83;82.90;97460.56;4968250;28;20827;-81
2023/08/04 05:07:00;;;;;;;1.93;1.70;;;15.00;92.30;;;14.86;82.75;97462.75;4952352;29;20454;-77
2023/08/04 05:09:28;;;;;;;4.20;2.00;;;15.00;92.30;;;14.27;84.13;97388.19;4946927;29;20495;-77
2023/08/04 05:11:55;;;;;;;1.43;1.33;;;15.00;93.00;;;15.25;85.20;97480.78;4951544;29;20516;-78
2023/08/04 05:14:22;;;;;;;2.20;1.60;;;15.20;94.40;;;14.90;82.35;97439.41;4941468;29;20444;-79
2023/08/04 05:16:50;;;;;;;2.87;1.27;;;15.30;92.20;;;15.11;82.11;97451.28;4950296;29;20461;-82
2023/08/04 05:19:17;;;;;;;1.57;1.40;;;15.50;92.20;;;15.17;81.33;97482.09;4953047;29;20471;-77
2023/08/04 05:21:44;;;;;;;1.40;1.30;;;15.30;91.50;;;15.24;80.98;97482.72;4952760;29;20551;-79
2023/08/04 05:24:13;;;;;;;1.80;1.47;;;15.40;91.50;;;15.11;82.58;97477.69;4944544;28;20477;-78
2023/08/04 05:26:40;;;;;;;3.90;1.60;;;15.30;92.00;;;15.10;81.77;97473.34;4945341;28;20451;-79
2023/08/04 05:29:07;;;;;;;1.40;1.27;;;15.20;91.80;;;15.24;82.44;97477.25;4947681;28;20463;-77
2023/08/04 05:31:35;;;;;;;3.87;2.03;;;15.20;92.70;;;14.97;80.97;97423.72;4947625;29;20529;-86
2023/08/04 05:34:02;;;;;;;3.00;2.00;;;15.20;92.40;;;15.61;79.70;97474.81;4953040;28;20455;-81
2023/08/04 05:36:29;;;;;;;3.83;1.50;;;15.40;91.90;;;15.83;78.54;97478.22;4953547;28;20966;-73
2023/08/04 05:38:56;;;;;;;2.13;1.73;;;15.60;91.20;;;15.95;78.24;97475.34;4950602;28;20973;-78
2023/08/04 05:41:25;;;;;;;3.73;1.93;;;15.70;91.20;;;16.24;76.90;97465.94;4944930;28;20469;-76
2023/08/04 05:43:53;;;;;;;6.47;5.87;;;16.00;90.60;;;16.19;77.07;97468.66;4948071;29;20582;-86
2023/08/04 05:46:20;;;;;;;4.67;2.17;;;16.10;90.30;;;16.51;76.40;97473.13;4944820;29;20486;-81
2023/08/04 05:48:48;;;;;;;6.90;2.03;;;16.30;90.40;;;16.80;75.10;97453.56;4944973;29;20550;-81
2023/08/04 05:51:16;;;;;;;3.70;2.27;;;16.50;90.10;;;16.51;74.60;97422.13;4943603;29;20457;-80
2023/08/04 05:53:43;;;;;;;2.40;1.60;;;16.60;89.40;;;17.05;73.13;97462.91;4959257;28;20455;-81
2023/08/04 05:56:11;;;;;;;3.23;1.83;;;16.80;88.80;;;16.56;73.19;97380.44;4943409;29;20582;-82
2023/08/04 05:58:46;;;;;;;4.67;1.60;;;16.90;88.60;;;16.73;73.89;97442.09;4926201;29;20547;-81
2023/08/04 06:01:13;;;;;;;2.43;1.83;;;16.90;88.00;;;16.54;73.29;97427.06;4960281;28;20456;-80
2023/08/04 06:03:40;;;;;;;3.57;1.93;;;16.90;87.40;;;16.68;74.45;97471.00;4946567;28;20517;-83
2023/08/04 06:06:07;;;;;;;7.20;2.40;;;16.80;87.70;;;16.48;73.86;97400.84;4944063;29;20459;-81
2023/08/04 06:08:35;;;;;;;1.80;1.47;;;16.80;88.00;;;17.22;72.75;97479.84;4941377;29;20469;-81
2023/08/04 06:11:02;;;;;;;3.13;1.87;;;17.00;87.70;;;16.55;71.72;97384.25;4934816;29;20464;-78
2023/08/04 06:13:30;;;;;;;3.57;2.17;;;17.20;87.00;;;17.65;70.44;97459.63;4940568;29;20474;-78
2023/08/04 06:15:58;;;;;;;5.00;1.67;;;17.40;86.70;;;17.51;69.98;97443.78;4938493;28;20464;-80
2023/08/04 06:18:25;;;;;;;2.60;2.13;;;17.60;85.80;;;17.63;69.70;97479.03;4937803;29;20507;-80
2023/08/04 06:20:53;;;;;;;2.30;1.77;;;17.70;85.40;;;17.39;70.79;97478.78;4948908;28;20463;-80
2023/08/04 06:23:20;;;;;;;3.93;2.60;;;17.40;85.60;;;17.61;69.44;97474.91;4941638;29;22369;-81
2023/08/04 06:25:48;;;;;;;6.77;2.37;;;17.70;85.20;;;17.87;68.12;97469.44;4940548;29;20519;-80
2023/08/04 06:28:15;;;;;;;1.50;1.40;;;17.80;84.50;;;17.70;68.52;97486.94;4925143;29;20526;-80
2023/08/04 06:30:43;;;;;;;2.40;1.80;;;17.70;84.40;;;17.95;68.06;97486.06;4940634;28;20467;-80
2023/08/04 06:33:11;;;;;;;5.57;1.57;;;17.70;84.50;;;17.88;67.61;97473.78;4940597;29;20972;-80
2023/08/04 06:35:41;;;;;;;2.93;2.63;;;17.80;84.20;;;17.25;68.05;97413.78;4933289;29;20461;-81
2023/08/04 06:38:09;;;;;;;3.67;1.87;;;17.80;84.00;;;17.93;67.13;97465.56;4940222;29;20541;-79
2023/08/04 06:40:37;;;;;;;2.23;1.43;;;17.90;84.00;;;18.04;66.99;97460.94;4937253;29;20464;-80
2023/08/04 06:43:04;;;;;;;2.70;1.60;;;17.90;84.00;;;18.17;67.04;97495.06;4932305;28;20487;-74
2023/08/04 06:45:31;;;;;;;2.73;1.40;;;17.90;83.80;;;18.28;66.29;97472.06;4937604;28;20489;-78
2023/08/04 06:47:59;;;;;;;2.50;1.60;;;18.20;83.90;;;18.05;66.57;97468.06;4940175;29;20473;-76
2023/08/04 06:50:27;;;;;;;2.60;1.97;;;18.10;83.10;;;18.62;65.67;97486.94;4943455;28;20965;-77
2023/08/04 06:52:54;;;;;;;4.93;2.00;;;18.30;83.30;;;19.22;63.84;97492.38;4937398;29;20526;-77
2023/08/04 06:55:22;;;;;;;3.57;1.43;;;18.70;83.00;;;19.54;62.06;97460.91;4938625;29;20474;-79
2023/08/04 06:57:49;;;;;;;4.33;1.90;;;19.10;82.30;;;19.83;60.55;97481.19;4939234;29;20474;-77
2023/08/04 07:00:18;;;;;;;1.83;1.50;;;19.40;81.20;;;20.12;59.73;97482.31;4946345;29;20464;-79
2023/08/04 07:02:48;;;;;;;5.80;1.73;;;19.70;80.50;;;20.03;59.98;97491.16;4957699;28;20461;-79
2023/08/04 07:05:16;;;;;;;3.87;1.50;;;19.80;80.10;;;19.37;61.56;97491.44;4961396;23;20651;-81
2023/08/04 07:07:47;;;;;;;5.30;1.90;;;19.60;79.80;;;19.48;62.58;97481.22;4977414;28;20457;-81
2023/08/04 07:10:20;;;;;;;2.80;1.70;;;19.50;80.80;;;19.70;61.81;97490.06;4959855;28;20463;-88
2023/08/04 07:12:47;;;;;;;2.27;1.77;;;19.70;80.10;;;19.73;61.41;97473.88;4950039;28;20493;-82
2023/08/04 07:15:15;;;;;;;2.60;1.57;;;19.80;79.80;;;20.55;59.41;97467.78;4941037;29;20467;-81
2023/08/04 07:17:43;;;;;;;2.50;1.70;;;20.20;79.60;;;21.42;55.76;97479.44;4944983;29;20509;-79
2023/08/04 07:20:12;;;;;;;6.83;1.50;;;20.90;77.80;;;20.85;56.58;97461.13;4951430;28;20475;-78
2023/08/04 07:22:39;;;;;;;1.33;1.23;;;20.90;77.00;;;20.55;57.88;97465.06;4958530;28;20538;-86
2023/08/04 07:25:09;;;;;;;1.30;1.10;;;20.70;77.20;;;21.05;57.10;97470.16;4945090;28;21121;-78
2023/08/04 07:27:36;;;;;;;3.77;1.20;;;20.80;77.30;;;21.21;56.25;97485.28;4929228;29;20467;-79
2023/08/04 07:30:05;;;;;;;1.70;1.47;;;21.00;76.60;;;20.91;57.11;97487.38;4933881;29;20449;-81
2023/08/04 07:32:32;;;;;;;3.23;1.40;;;21.00;76.50;;;20.57;56.68;97425.25;4947009;28;22091;-80
2023/08/04 07:34:59;;;;;;;2.77;1.10;;;20.80;76.10;;;20.61;56.48;97442.72;4933559;29;21035;-78
2023/08/04 07:37:27;;;;;;;1.37;1.07;;;20.80;76.10;;;20.06;57.88;97418.47;4938000;28;20466;-79
2023/08/04 07:39:54;;;;;;;1.37;1.00;;;20.50;76.30;;;20.05;58.72;97490.88;4933783;28;20538;-78
2023/08/04 07:42:23;;;;;;;1.93;1.37;;;20.30;76.20;;;19.97;59.49;97492.31;4934563;29;20473;-79
2023/08/04 07:44:50;;;;;;;1.27;1.07;;;20.00;76.90;;;20.02;58.93;97500.47;4936235;29;20493;-80
2023/08/04 07:47:18;;;;;;;4.40;1.53;;;20.00;77.10;;;19.97;58.99;97506.03;4936263;29;20454;-79
2023/08/04 07:49:45;;;;;;;4.03;1.50;;;20.00;76.70;;;19.72;59.77;97502.38;4940205;29;20466;-82
2023/08/04 07:52:12;;;;;;;2.40;1.30;;;19.80;76.80;;;19.74;58.38;97434.41;4935754;29;20462;-81
2023/08/04 07:54:39;;;;;;;3.37;1.10;;;19.90;76.80;;;19.94;58.00;97465.47;4938660;29;20941;-82
2023/08/04 07:57:08;;;;;;;1.67;0.97;;;20.00;76.30;;;20.22;58.22;97485.75;4939880;28;20823;-78
2023/08/04 07:59:36;;;;;;;1.17;1.07;;;20.00;76.30;;;20.09;57.95;97489.19;4932452;29;20867;-79
2023/08/04 08:02:04;;;;;;;3.20;1.47;;;20.00;76.30;;;20.05;58.23;97488.94;4941578;29;20460;-80
2023/08/04 08:04:31;;;;;;;3.97;1.20;;;20.00;76.40;;;19.98;58.45;97487.63;4941801;29;20515;-79
2023/08/04 08:06:59;;;;;;;2.63;1.40;;;19.90;76.40;;;19.95;59.44;97500.03;4941990;29;20537;-80
2023/08/04 08:09:27;;;;;;;1.77;1.10;;;19.90;76.90;;;19.29;59.37;97439.19;4939786;28;20471;-80
2023/08/04 08:11:54;;;;;;;2.10;1.30;;;19.80;76.50;;;19.75;59.11;97485.38;4940038;28;20463;-78
2023/08/04 08:14:21;;;;;;;2.30;1.10;;;19.60;76.60;;;20.13;58.24;97501.19;4934395;29;20540;-78
2023/08/04 08:16:50;;;;;;;2.80;1.60;;;19.80;76.60;;;20.31;58.20;97502.38;4936048;29;20482;-80
2023/08/04 08:19:17;;;;;;;1.77;0.80;;;19.90;76.70;;;20.29;58.34;97501.84;4937267;28;20465;-79
2023/08/04 08:21:45;;;;;;;1.50;0.90;;;20.00;76.50;;;19.97;57.82;97459.44;4951497;28;20562;-87
2023/08/04 08:24:12;;;;;;;1.80;0.80;;;20.10;76.00;;;20.06;57.24;97484.28;4963857;29;20574;-82
2023/08/04 08:26:40;;;;;;;1.00;0.67;;;20.20;75.70;;;20.30;56.98;97506.22;4964004;29;20463;-83
2023/08/04 08:29:07;;;;;;;2.30;0.90;;;20.10;75.40;;;19.88;57.45;97447.41;4956746;28;20456;-82
2023/08/04 08:31:34;;;;;;;1.73;1.10;;;20.10;75.40;;;20.08;56.64;97477.38;5379562;23;20455;-81
2023/08/04 08:34:03;;;;;;;3.10;1.50;;;20.20;74.90;;;20.05;55.20;97450.53;4967324;28;20470;-82
2023/08/04 08:36:31;;;;;;;0.90;0.70;;;20.40;74.00;;;18.48;57.15;97318.00;4949155;28;20448;-83
2023/08/04 08:38:59;;;;;;;0.90;0.63;;;20.10;74.00;;;19.99;57.07;97505.72;4966613;28;20439;-86
2023/08/04 08:41:26;;;;;;;2.43;1.30;;;20.00;74.40;;;20.29;56.45;97492.78;4957268;29;20463;-84
2023/08/04 08:43:53;;;;;;;1.57;0.90;;;20.20;74.60;;;20.44;55.60;97511.00;4964556;28;20458;-88
2023/08/04 08:46:23;;;;;;;2.30;1.03;;;20.40;73.80;;;20.61;55.05;97505.84;4963907;28;20492;-85
2023/08/04 08:48:52;;;;;;;1.27;0.77;;;20.50;73.60;;;20.69;54.86;97500.81;4953432;28;20459;-79
2023/08/04 08:51:21;;;;;;;4.60;0.90;;;20.50;73.40;;;20.81;55.31;97498.47;4943435;29;20466;-81
2023/08/04 08:53:50;;;;;;;2.03;0.93;;;20.60;73.90;;;21.17;54.76;97494.41;4940019;28;20553;-86
2023/08/04 08:56:17;;;;;;;4.00;1.10;;;20.80;74.10;;;20.92;55.51;97489.00;4944396;29;20460;-82
2023/08/04 08:58:45;;;;;;;1.33;0.90;;;20.90;73.90;;;21.17;54.77;97488.91;4947771;28;20465;-84
2023/08/04 09:01:14;;;;;;;1.37;0.90;;;21.00;73.50;;;21.48;52.30;97470.03;4961071;29;20459;-81
2023/08/04 09:03:42;;;;;;;1.10;0.90;;;21.40;72.60;;;22.13;50.98;97474.94;4967643;29;20443;-83
2023/08/04 09:06:09;;;;;;;0.83;0.83;;;21.90;71.30;;;22.11;50.28;97460.69;4968479;28;20488;-88
2023/08/04 09:08:38;;;;;;;1.20;0.80;;;22.10;70.30;;;22.53;48.55;97428.50;4965216;28;20503;-84
2023/08/04 09:11:07;;;;;;;1.10;0.70;;;22.50;69.60;;;22.71;50.10;97490.03;4974164;28;20567;-82
2023/08/04 09:13:35;;;;;;;2.03;0.90;;;22.60;70.00;;;22.16;51.14;97477.09;4963921;28;20467;-79
2023/08/04 09:16:03;;;;;;;6.63;5.03;;;22.30;70.00;;;22.22;51.15;97473.13;4961970;29;20463;-84
2023/08/04 09:18:33;;;;;;;1.90;1.07;;;22.40;70.10;;;22.27;50.41;97484.03;4953512;29;20612;-81
2023/08/04 09:21:09;;;;;;;0.93;0.73;;;22.40;69.30;;;22.53;50.35;97489.06;4965179;28;20442;-85
2023/08/04 09:23:42;;;;;;;0.83;0.77;;;22.40;69.70;;;22.22;50.50;97482.19;4961256;28;20466;-91
2023/08/04 09:26:10;;;;;;;0.80;0.80;;;22.10;69.30;;;21.77;50.03;97480.00;4965191;28;20486;-80
2023/08/04 09:28:38;;;;;;;1.63;1.17;;;22.00;67.70;;;21.76;50.51;97500.38;4965517;28;20448;-82
2023/08/04 09:31:08;;;;;;;1.00;0.60;;;21.70;68.00;;;21.10;50.08;97412.41;4971666;28;20447;-85
2023/08/04 09:33:41;;;;;;;1.40;0.40;;;21.60;67.50;;;21.48;50.73;97486.50;4967801;28;20483;-80
2023/08/04 09:36:10;;;;;;;1.17;0.60;;;21.50;67.80;;;21.67;50.79;97474.69;4964006;28;20476;-84
2023/08/04 09:38:40;;;;;;;0.70;0.63;;;21.60;68.40;;;22.21;50.23;97485.22;4986716;28;20504;-83
2023/08/04 09:41:12;;;;;;;1.27;0.80;;;21.80;68.50;;;21.97;49.55;97442.25;4968375;28;20477;-83
2023/08/04 09:43:45;;;;;;;1.73;1.40;;;22.00;67.90;;;22.27;50.09;97502.47;4996220;23;20492;-83
2023/08/04 09:46:12;;;;;;;1.93;0.80;;;22.20;68.10;;;21.59;48.67;97321.44;4963767;28;20628;-84
2023/08/04 09:48:40;;;;;;;0.70;0.70;;;22.50;67.50;;;22.34;49.35;97509.19;4945283;28;20764;-85
2023/08/04 09:51:09;;;;;;;2.50;1.40;;;22.50;67.20;;;23.20;48.46;97486.75;4967285;28;20472;-80
2023/08/04 09:53:54;;;;;;;1.10;0.87;;;22.70;67.50;;;23.14;47.51;97446.69;4967475;28;20469;-84
2023/08/04 09:56:26;;;;;;;0.73;0.70;;;23.00;67.10;;;22.71;46.37;97365.34;4958808;28;20453;-83
2023/08/04 09:58:54;;;;;;;1.67;1.13;;;23.40;65.60;;;23.11;47.18;97409.53;4958276;28;20486;-81
2023/08/04 10:01:21;;;;;;;1.37;1.00;;;23.50;66.50;;;23.62;47.78;97489.38;4950316;29;20462;-87
2023/08/04 10:03:53;;;;;;;1.60;1.10;;;23.50;66.80;;;23.90;46.42;97480.94;4953775;28;20459;-92
2023/08/04 10:06:22;;;;;;;2.33;1.10;;;23.70;65.80;;;23.90;46.57;97461.63;4940544;28;20524;-86
2023/08/04 10:08:50;;;;;;;2.20;1.03;;;23.80;65.90;;;24.43;45.65;97475.66;4958279;29;20469;-87
2023/08/04 10:11:20;;;;;;;1.33;1.00;;;24.10;65.80;;;24.20;45.24;97398.47;4944760;29;20561;-85
2023/08/04 10:13:52;;;;;;;1.43;0.90;;;24.30;65.30;;;24.70;44.80;97476.53;4943699;29;20553;-86
2023/08/04 10:16:24;;;;;;;1.03;0.83;;;24.50;64.90;;;24.62;45.59;97459.59;4941060;28;20466;-81
2023/08/04 10:18:54;;;;;;;1.63;1.00;;;24.50;64.90;;;24.83;44.92;97464.56;4948014;29;20455;-85
2023/08/04 10:21:28;;;;;;;1.13;1.03;;;24.60;64.60;;;24.05;46.22;97452.97;4949058;29;20978;-87
2023/08/04 10:23:59;;;;;;;2.07;0.97;;;24.30;64.60;;;22.80;49.67;97459.81;4951008;28;20460;-82